sensor_id;sensor_type;location;lat;lon;timestamp;P1;durP1;ratioP1;P2;durP2;ratioP2
20159;SDS011;50187;50.492;12.134;2022-09-03T00:02:10;2.20;;;2.00;;
20159;SDS011;50187;50.492;12.134;2022-09-03T00:14:11;1.73;;;1.63;;
20159;SDS011;50187;50.492;12.134;2022-09-03T00:17:18;1.73;;;1.63;;
20159;SDS011;50187;50.492;12.134;2022-09-03T00:23:26;1.90;;;1.80;;
20159;SDS011;50187;50.492;12.134;2022-09-03T00:26:21;1.90;;;1.80;;
20159;SDS011;50187;50.492;12.134;2022-09-03T00:29:17;1.97;;;1.87;;
20159;SDS011;50187;50.492;12.134;2022-09-03T00:35:27;2.50;;;1.90;;
20159;SDS011;50187;50.492;12.134;2022-09-03T00:38:17;2.33;;;2.13;;
20159;SDS011;50187;50.492;12.134;2022-09-03T00:41:10;2.00;;;1.90;;
20159;SDS011;50187;50.492;12.134;2022-09-03T00:53:21;1.90;;;1.80;;
20159;SDS011;50187;50.492;12.134;2022-09-03T00:59:35;1.87;;;1.77;;
20159;SDS011;50187;50.492;12.134;2022-09-03T01:06:08;1.80;;;1.70;;
20159;SDS011;50187;50.492;12.134;2022-09-03T01:12:42;1.80;;;1.70;;
20159;SDS011;50187;50.492;12.134;2022-09-03T01:15:34;1.83;;;1.73;;
20159;SDS011;50187;50.492;12.134;2022-09-03T01:19:22;2.00;;;1.83;;
20159;SDS011;50187;50.492;12.134;2022-09-03T01:22:05;2.00;;;1.90;;
20159;SDS011;50187;50.492;12.134;2022-09-03T01:25:05;1.83;;;1.70;;
20159;SDS011;50187;50.492;12.134;2022-09-03T01:28:04;2.13;;;1.93;;
20159;SDS011;50187;50.492;12.134;2022-09-03T01:31:06;2.00;;;1.90;;
20159;SDS011;50187;50.492;12.134;2022-09-03T01:37:26;1.70;;;1.60;;
20159;SDS011;50187;50.492;12.134;2022-09-03T01:40:41;2.10;;;1.90;;
20159;SDS011;50187;50.492;12.134;2022-09-03T01:46:38;2.13;;;2.00;;
20159;SDS011;50187;50.492;12.134;2022-09-03T01:49:31;1.90;;;1.80;;
20159;SDS011;50187;50.492;12.134;2022-09-03T01:58:40;1.90;;;1.80;;
20159;SDS011;50187;50.492;12.134;2022-09-03T02:01:32;1.90;;;1.80;;
20159;SDS011;50187;50.492;12.134;2022-09-03T02:04:24;1.70;;;1.60;;
20159;SDS011;50187;50.492;12.134;2022-09-03T02:07:12;2.20;;;2.10;;
20159;SDS011;50187;50.492;12.134;2022-09-03T02:10:00;1.70;;;1.60;;
20159;SDS011;50187;50.492;12.134;2022-09-03T02:12:48;2.10;;;2.00;;
20159;SDS011;50187;50.492;12.134;2022-09-03T02:15:40;1.87;;;1.77;;
20159;SDS011;50187;50.492;12.134;2022-09-03T02:18:37;2.00;;;1.90;;
20159;SDS011;50187;50.492;12.134;2022-09-03T02:21:31;2.03;;;1.93;;
20159;SDS011;50187;50.492;12.134;2022-09-03T02:24:20;1.93;;;1.83;;
20159;SDS011;50187;50.492;12.134;2022-09-03T02:27:08;2.43;;;2.20;;
20159;SDS011;50187;50.492;12.134;2022-09-03T02:29:55;1.90;;;1.80;;
20159;SDS011;50187;50.492;12.134;2022-09-03T02:32:42;2.20;;;2.10;;
20159;SDS011;50187;50.492;12.134;2022-09-03T02:35:29;2.10;;;2.00;;
20159;SDS011;50187;50.492;12.134;2022-09-03T02:38:21;1.80;;;1.70;;
20159;SDS011;50187;50.492;12.134;2022-09-03T02:41:11;1.57;;;1.47;;
20159;SDS011;50187;50.492;12.134;2022-09-03T02:46:51;1.97;;;1.87;;
20159;SDS011;50187;50.492;12.134;2022-09-03T02:49:42;1.90;;;1.80;;
20159;SDS011;50187;50.492;12.134;2022-09-03T02:52:29;2.77;;;2.03;;
20159;SDS011;50187;50.492;12.134;2022-09-03T02:55:16;2.37;;;1.77;;
20159;SDS011;50187;50.492;12.134;2022-09-03T02:58:04;2.23;;;2.03;;
20159;SDS011;50187;50.492;12.134;2022-09-03T03:00:54;1.80;;;1.70;;
20159;SDS011;50187;50.492;12.134;2022-09-03T03:03:41;1.73;;;1.63;;
20159;SDS011;50187;50.492;12.134;2022-09-03T03:06:28;2.03;;;1.93;;
20159;SDS011;50187;50.492;12.134;2022-09-03T03:09:16;1.90;;;1.80;;
20159;SDS011;50187;50.492;12.134;2022-09-03T03:12:03;1.97;;;1.87;;
20159;SDS011;50187;50.492;12.134;2022-09-03T03:14:51;1.67;;;1.57;;
20159;SDS011;50187;50.492;12.134;2022-09-03T03:17:38;2.10;;;2.00;;
20159;SDS011;50187;50.492;12.134;2022-09-03T03:20:25;1.70;;;1.60;;
20159;SDS011;50187;50.492;12.134;2022-09-03T03:23:12;1.70;;;1.60;;
20159;SDS011;50187;50.492;12.134;2022-09-03T03:26:02;2.10;;;1.90;;
20159;SDS011;50187;50.492;12.134;2022-09-03T03:28:54;1.73;;;1.63;;
20159;SDS011;50187;50.492;12.134;2022-09-03T03:31:43;2.00;;;1.90;;
20159;SDS011;50187;50.492;12.134;2022-09-03T03:34:30;2.07;;;1.97;;
20159;SDS011;50187;50.492;12.134;2022-09-03T03:37:17;1.90;;;1.80;;
20159;SDS011;50187;50.492;12.134;2022-09-03T03:40:04;2.00;;;1.90;;
20159;SDS011;50187;50.492;12.134;2022-09-03T03:42:52;1.77;;;1.67;;
20159;SDS011;50187;50.492;12.134;2022-09-03T03:45:40;2.30;;;1.83;;
20159;SDS011;50187;50.492;12.134;2022-09-03T03:48:27;1.70;;;1.60;;
20159;SDS011;50187;50.492;12.134;2022-09-03T03:51:13;1.70;;;1.60;;
20159;SDS011;50187;50.492;12.134;2022-09-03T03:54:00;1.70;;;1.60;;
20159;SDS011;50187;50.492;12.134;2022-09-03T03:56:51;1.70;;;1.60;;
20159;SDS011;50187;50.492;12.134;2022-09-03T03:59:41;1.80;;;1.70;;
20159;SDS011;50187;50.492;12.134;2022-09-03T04:02:28;1.70;;;1.60;;
20159;SDS011;50187;50.492;12.134;2022-09-03T04:05:15;1.80;;;1.70;;
20159;SDS011;50187;50.492;12.134;2022-09-03T04:08:08;1.90;;;1.80;;
20159;SDS011;50187;50.492;12.134;2022-09-03T04:10:59;1.80;;;1.70;;
20159;SDS011;50187;50.492;12.134;2022-09-03T04:13:47;1.93;;;1.73;;
20159;SDS011;50187;50.492;12.134;2022-09-03T04:16:35;1.60;;;1.50;;
20159;SDS011;50187;50.492;12.134;2022-09-03T04:19:22;1.90;;;1.70;;
20159;SDS011;50187;50.492;12.134;2022-09-03T04:22:09;1.60;;;1.50;;
20159;SDS011;50187;50.492;12.134;2022-09-03T04:24:57;1.63;;;1.53;;
20159;SDS011;50187;50.492;12.134;2022-09-03T04:27:44;1.40;;;1.40;;
20159;SDS011;50187;50.492;12.134;2022-09-03T04:30:31;1.60;;;1.50;;
20159;SDS011;50187;50.492;12.134;2022-09-03T04:33:19;1.90;;;1.80;;
20159;SDS011;50187;50.492;12.134;2022-09-03T04:36:17;1.80;;;1.70;;
20159;SDS011;50187;50.492;12.134;2022-09-03T04:39:05;1.80;;;1.70;;
20159;SDS011;50187;50.492;12.134;2022-09-03T04:41:52;1.50;;;1.40;;
20159;SDS011;50187;50.492;12.134;2022-09-03T04:44:40;1.70;;;1.60;;
20159;SDS011;50187;50.492;12.134;2022-09-03T04:47:27;1.83;;;1.73;;
20159;SDS011;50187;50.492;12.134;2022-09-03T04:50:14;1.57;;;1.47;;
20159;SDS011;50187;50.492;12.134;2022-09-03T04:53:02;1.90;;;1.80;;
20159;SDS011;50187;50.492;12.134;2022-09-03T04:55:53;1.80;;;1.70;;
20159;SDS011;50187;50.492;12.134;2022-09-03T04:58:41;1.67;;;1.57;;
20159;SDS011;50187;50.492;12.134;2022-09-03T05:01:30;2.23;;;1.70;;
20159;SDS011;50187;50.492;12.134;2022-09-03T05:04:18;1.93;;;1.80;;
20159;SDS011;50187;50.492;12.134;2022-09-03T05:07:05;1.93;;;1.83;;
20159;SDS011;50187;50.492;12.134;2022-09-03T05:09:53;3.10;;;1.63;;
20159;SDS011;50187;50.492;12.134;2022-09-03T05:12:40;1.60;;;1.50;;
20159;SDS011;50187;50.492;12.134;2022-09-03T05:15:28;1.97;;;1.87;;
20159;SDS011;50187;50.492;12.134;2022-09-03T05:18:17;1.90;;;1.80;;
20159;SDS011;50187;50.492;12.134;2022-09-03T05:21:06;1.87;;;1.77;;
20159;SDS011;50187;50.492;12.134;2022-09-03T05:23:58;1.50;;;1.40;;
20159;SDS011;50187;50.492;12.134;2022-09-03T05:26:45;1.83;;;1.73;;
20159;SDS011;50187;50.492;12.134;2022-09-03T05:29:32;2.10;;;1.90;;
20159;SDS011;50187;50.492;12.134;2022-09-03T05:32:19;1.90;;;1.80;;
20159;SDS011;50187;50.492;12.134;2022-09-03T05:35:07;1.60;;;1.50;;
20159;SDS011;50187;50.492;12.134;2022-09-03T05:37:55;1.60;;;1.50;;
20159;SDS011;50187;50.492;12.134;2022-09-03T05:40:42;1.70;;;1.60;;
20159;SDS011;50187;50.492;12.134;2022-09-03T05:43:30;1.67;;;1.57;;
20159;SDS011;50187;50.492;12.134;2022-09-03T05:46:18;1.70;;;1.60;;
20159;SDS011;50187;50.492;12.134;2022-09-03T05:49:05;1.40;;;1.30;;
20159;SDS011;50187;50.492;12.134;2022-09-03T05:51:53;1.60;;;1.50;;
20159;SDS011;50187;50.492;12.134;2022-09-03T05:54:40;1.70;;;1.60;;
20159;SDS011;50187;50.492;12.134;2022-09-03T05:57:27;1.83;;;1.73;;
20159;SDS011;50187;50.492;12.134;2022-09-03T06:00:15;1.63;;;1.53;;
20159;SDS011;50187;50.492;12.134;2022-09-03T06:03:04;1.73;;;1.63;;
20159;SDS011;50187;50.492;12.134;2022-09-03T06:05:52;1.70;;;1.60;;
20159;SDS011;50187;50.492;12.134;2022-09-03T06:08:40;2.00;;;1.30;;
20159;SDS011;50187;50.492;12.134;2022-09-03T06:11:28;1.40;;;1.40;;
20159;SDS011;50187;50.492;12.134;2022-09-03T06:14:16;1.47;;;1.37;;
20159;SDS011;50187;50.492;12.134;2022-09-03T06:17:03;1.53;;;1.47;;
20159;SDS011;50187;50.492;12.134;2022-09-03T06:19:50;1.90;;;1.80;;
20159;SDS011;50187;50.492;12.134;2022-09-03T06:22:37;1.70;;;1.60;;
20159;SDS011;50187;50.492;12.134;2022-09-03T06:25:23;1.83;;;1.73;;
20159;SDS011;50187;50.492;12.134;2022-09-03T06:28:10;1.10;;;1.10;;
20159;SDS011;50187;50.492;12.134;2022-09-03T06:30:57;1.83;;;1.73;;
20159;SDS011;50187;50.492;12.134;2022-09-03T06:33:45;1.43;;;1.37;;
20159;SDS011;50187;50.492;12.134;2022-09-03T06:36:32;1.67;;;1.40;;
20159;SDS011;50187;50.492;12.134;2022-09-03T06:39:19;1.57;;;1.47;;
20159;SDS011;50187;50.492;12.134;2022-09-03T06:42:06;2.77;;;1.63;;
20159;SDS011;50187;50.492;12.134;2022-09-03T06:44:55;3.80;;;1.50;;
20159;SDS011;50187;50.492;12.134;2022-09-03T06:47:43;1.20;;;1.20;;
20159;SDS011;50187;50.492;12.134;2022-09-03T06:50:30;1.77;;;1.67;;
20159;SDS011;50187;50.492;12.134;2022-09-03T06:53:21;1.63;;;1.30;;
20159;SDS011;50187;50.492;12.134;2022-09-03T06:56:18;1.60;;;1.50;;
20159;SDS011;50187;50.492;12.134;2022-09-03T06:59:13;1.57;;;1.47;;
20159;SDS011;50187;50.492;12.134;2022-09-03T07:02:00;1.83;;;1.73;;
20159;SDS011;50187;50.492;12.134;2022-09-03T07:04:49;1.40;;;1.30;;
20159;SDS011;50187;50.492;12.134;2022-09-03T07:07:36;1.67;;;1.60;;
20159;SDS011;50187;50.492;12.134;2022-09-03T07:10:24;1.77;;;1.67;;
20159;SDS011;50187;50.492;12.134;2022-09-03T07:13:11;1.80;;;1.70;;
20159;SDS011;50187;50.492;12.134;2022-09-03T07:16:18;1.20;;;1.20;;
20159;SDS011;50187;50.492;12.134;2022-09-03T07:19:05;1.47;;;1.37;;
20159;SDS011;50187;50.492;12.134;2022-09-03T07:21:54;1.70;;;1.60;;
20159;SDS011;50187;50.492;12.134;2022-09-03T07:24:41;1.70;;;1.60;;
20159;SDS011;50187;50.492;12.134;2022-09-03T07:27:33;1.13;;;1.13;;
20159;SDS011;50187;50.492;12.134;2022-09-03T07:30:20;1.37;;;1.37;;
20159;SDS011;50187;50.492;12.134;2022-09-03T07:33:07;1.30;;;1.30;;
20159;SDS011;50187;50.492;12.134;2022-09-03T07:35:54;1.60;;;1.50;;
20159;SDS011;50187;50.492;12.134;2022-09-03T07:38:42;1.77;;;1.67;;
20159;SDS011;50187;50.492;12.134;2022-09-03T07:41:30;1.90;;;1.70;;
20159;SDS011;50187;50.492;12.134;2022-09-03T07:44:18;1.67;;;1.57;;
20159;SDS011;50187;50.492;12.134;2022-09-03T07:47:06;1.80;;;1.70;;
20159;SDS011;50187;50.492;12.134;2022-09-03T07:49:53;1.67;;;1.57;;
20159;SDS011;50187;50.492;12.134;2022-09-03T07:52:40;1.80;;;1.70;;
20159;SDS011;50187;50.492;12.134;2022-09-03T07:55:27;1.60;;;1.50;;
20159;SDS011;50187;50.492;12.134;2022-09-03T07:58:14;1.50;;;1.40;;
20159;SDS011;50187;50.492;12.134;2022-09-03T08:01:05;1.60;;;1.50;;
20159;SDS011;50187;50.492;12.134;2022-09-03T08:03:56;1.27;;;1.27;;
20159;SDS011;50187;50.492;12.134;2022-09-03T08:06:44;1.97;;;1.63;;
20159;SDS011;50187;50.492;12.134;2022-09-03T08:09:30;1.30;;;1.30;;
20159;SDS011;50187;50.492;12.134;2022-09-03T08:12:18;1.50;;;1.40;;
20159;SDS011;50187;50.492;12.134;2022-09-03T08:15:05;1.63;;;1.47;;
20159;SDS011;50187;50.492;12.134;2022-09-03T08:17:53;1.63;;;1.53;;
20159;SDS011;50187;50.492;12.134;2022-09-03T08:20:49;1.60;;;1.50;;
20159;SDS011;50187;50.492;12.134;2022-09-03T08:23:36;1.50;;;1.40;;
20159;SDS011;50187;50.492;12.134;2022-09-03T08:26:24;1.60;;;1.50;;
20159;SDS011;50187;50.492;12.134;2022-09-03T08:29:11;1.53;;;1.43;;
20159;SDS011;50187;50.492;12.134;2022-09-03T08:31:58;1.50;;;1.40;;
20159;SDS011;50187;50.492;12.134;2022-09-03T08:34:45;1.57;;;1.47;;
20159;SDS011;50187;50.492;12.134;2022-09-03T08:37:32;1.73;;;1.63;;
20159;SDS011;50187;50.492;12.134;2022-09-03T08:40:19;1.60;;;1.50;;
20159;SDS011;50187;50.492;12.134;2022-09-03T08:43:16;1.60;;;1.50;;
20159;SDS011;50187;50.492;12.134;2022-09-03T08:46:05;1.60;;;1.50;;
20159;SDS011;50187;50.492;12.134;2022-09-03T08:48:53;1.40;;;1.40;;
20159;SDS011;50187;50.492;12.134;2022-09-03T08:51:41;1.93;;;1.50;;
20159;SDS011;50187;50.492;12.134;2022-09-03T08:54:30;1.40;;;1.30;;
20159;SDS011;50187;50.492;12.134;2022-09-03T08:57:18;1.73;;;1.63;;
20159;SDS011;50187;50.492;12.134;2022-09-03T09:00:06;1.37;;;1.27;;
20159;SDS011;50187;50.492;12.134;2022-09-03T09:09:29;1.40;;;1.40;;
20159;SDS011;50187;50.492;12.134;2022-09-03T09:15:45;1.40;;;1.30;;
20159;SDS011;50187;50.492;12.134;2022-09-03T09:21:39;1.30;;;1.30;;
20159;SDS011;50187;50.492;12.134;2022-09-03T09:24:34;1.50;;;1.40;;
20159;SDS011;50187;50.492;12.134;2022-09-03T09:27:26;1.60;;;1.50;;
20159;SDS011;50187;50.492;12.134;2022-09-03T09:30:15;1.50;;;1.40;;
20159;SDS011;50187;50.492;12.134;2022-09-03T09:33:03;1.47;;;1.47;;
20159;SDS011;50187;50.492;12.134;2022-09-03T09:35:50;1.37;;;1.27;;
20159;SDS011;50187;50.492;12.134;2022-09-03T09:38:38;1.40;;;1.30;;
20159;SDS011;50187;50.492;12.134;2022-09-03T09:41:25;1.30;;;1.20;;
20159;SDS011;50187;50.492;12.134;2022-09-03T09:44:19;1.80;;;1.63;;
20159;SDS011;50187;50.492;12.134;2022-09-03T09:47:15;1.60;;;1.50;;
20159;SDS011;50187;50.492;12.134;2022-09-03T09:50:16;1.47;;;1.43;;
20159;SDS011;50187;50.492;12.134;2022-09-03T09:53:12;1.60;;;1.50;;
20159;SDS011;50187;50.492;12.134;2022-09-03T09:56:03;1.60;;;1.50;;
20159;SDS011;50187;50.492;12.134;2022-09-03T09:59:03;1.47;;;1.37;;
20159;SDS011;50187;50.492;12.134;2022-09-03T10:02:29;1.53;;;1.43;;
20159;SDS011;50187;50.492;12.134;2022-09-03T10:05:13;1.70;;;1.60;;
20159;SDS011;50187;50.492;12.134;2022-09-03T10:08:06;2.70;;;1.50;;
20159;SDS011;50187;50.492;12.134;2022-09-03T10:11:05;1.57;;;1.47;;
20159;SDS011;50187;50.492;12.134;2022-09-03T10:13:52;4.43;;;1.70;;
20159;SDS011;50187;50.492;12.134;2022-09-03T10:16:41;2.93;;;1.40;;
20159;SDS011;50187;50.492;12.134;2022-09-03T10:19:39;1.83;;;1.73;;
20159;SDS011;50187;50.492;12.134;2022-09-03T10:22:55;1.60;;;1.50;;
20159;SDS011;50187;50.492;12.134;2022-09-03T10:28:39;2.50;;;1.30;;
20159;SDS011;50187;50.492;12.134;2022-09-03T10:40:37;2.23;;;1.50;;
20159;SDS011;50187;50.492;12.134;2022-09-03T10:46:19;3.13;;;1.40;;
20159;SDS011;50187;50.492;12.134;2022-09-03T10:49:15;1.20;;;1.20;;
20159;SDS011;50187;50.492;12.134;2022-09-03T10:52:09;5.23;;;2.10;;
20159;SDS011;50187;50.492;12.134;2022-09-03T11:07:12;2.00;;;1.80;;
20159;SDS011;50187;50.492;12.134;2022-09-03T11:10:24;3.77;;;1.60;;
20159;SDS011;50187;50.492;12.134;2022-09-03T11:13:19;2.23;;;1.40;;
20159;SDS011;50187;50.492;12.134;2022-09-03T11:16:19;2.13;;;1.30;;
20159;SDS011;50187;50.492;12.134;2022-09-03T11:19:12;3.47;;;1.37;;
20159;SDS011;50187;50.492;12.134;2022-09-03T11:22:04;3.00;;;1.40;;
20159;SDS011;50187;50.492;12.134;2022-09-03T11:24:54;1.40;;;1.30;;
20159;SDS011;50187;50.492;12.134;2022-09-03T11:27:51;1.30;;;1.20;;
20159;SDS011;50187;50.492;12.134;2022-09-03T11:34:13;1.60;;;1.50;;
20159;SDS011;50187;50.492;12.134;2022-09-03T11:40:16;1.67;;;1.50;;
20159;SDS011;50187;50.492;12.134;2022-09-03T11:46:12;2.73;;;1.30;;
20159;SDS011;50187;50.492;12.134;2022-09-03T11:49:22;2.90;;;1.80;;
20159;SDS011;50187;50.492;12.134;2022-09-03T11:52:28;1.33;;;1.20;;
20159;SDS011;50187;50.492;12.134;2022-09-03T11:55:29;1.50;;;1.40;;
20159;SDS011;50187;50.492;12.134;2022-09-03T11:58:35;1.30;;;1.20;;
20159;SDS011;50187;50.492;12.134;2022-09-03T12:01:24;1.87;;;1.67;;
20159;SDS011;50187;50.492;12.134;2022-09-03T12:04:14;2.70;;;1.43;;
20159;SDS011;50187;50.492;12.134;2022-09-03T12:10:21;1.40;;;1.30;;
20159;SDS011;50187;50.492;12.134;2022-09-03T12:22:35;1.30;;;1.27;;
20159;SDS011;50187;50.492;12.134;2022-09-03T12:25:24;1.30;;;1.20;;
20159;SDS011;50187;50.492;12.134;2022-09-03T12:28:11;1.40;;;1.30;;
20159;SDS011;50187;50.492;12.134;2022-09-03T12:31:06;1.47;;;1.40;;
20159;SDS011;50187;50.492;12.134;2022-09-03T12:34:09;1.10;;;1.10;;
20159;SDS011;50187;50.492;12.134;2022-09-03T12:36:58;1.40;;;1.30;;
20159;SDS011;50187;50.492;12.134;2022-09-03T12:39:49;1.53;;;1.10;;
20159;SDS011;50187;50.492;12.134;2022-09-03T12:43:13;1.53;;;1.43;;
20159;SDS011;50187;50.492;12.134;2022-09-03T12:46:23;1.40;;;1.30;;
20159;SDS011;50187;50.492;12.134;2022-09-03T12:49:19;2.00;;;1.20;;
20159;SDS011;50187;50.492;12.134;2022-09-03T13:04:02;1.33;;;1.07;;
20159;SDS011;50187;50.492;12.134;2022-09-03T13:07:31;1.47;;;1.37;;
20159;SDS011;50187;50.492;12.134;2022-09-03T13:10:23;1.23;;;1.13;;
20159;SDS011;50187;50.492;12.134;2022-09-03T13:13:16;1.63;;;1.10;;
20159;SDS011;50187;50.492;12.134;2022-09-03T13:18:59;1.20;;;1.20;;
20159;SDS011;50187;50.492;12.134;2022-09-03T13:22:05;1.37;;;1.27;;
20159;SDS011;50187;50.492;12.134;2022-09-03T13:25:03;1.07;;;1.07;;
20159;SDS011;50187;50.492;12.134;2022-09-03T13:31:28;2.23;;;1.20;;
20159;SDS011;50187;50.492;12.134;2022-09-03T13:34:20;1.80;;;1.70;;
20159;SDS011;50187;50.492;12.134;2022-09-03T13:49:36;610.00;;;546.97;;
20159;SDS011;50187;50.492;12.134;2022-09-03T13:53:08;607.17;;;544.50;;
20159;SDS011;50187;50.492;12.134;2022-09-03T13:56:05;659.77;;;591.70;;
20159;SDS011;50187;50.492;12.134;2022-09-03T13:59:48;677.60;;;607.77;;
20159;SDS011;50187;50.492;12.134;2022-09-03T14:24:13;583.60;;;523.30;;
20159;SDS011;50187;50.492;12.134;2022-09-03T14:27:05;572.23;;;513.00;;
20159;SDS011;50187;50.492;12.134;2022-09-03T14:29:52;548.50;;;491.53;;
20159;SDS011;50187;50.492;12.134;2022-09-03T14:45:42;792.00;;;706.17;;
20159;SDS011;50187;50.492;12.134;2022-09-03T14:51:58;822.73;;;732.80;;
20159;SDS011;50187;50.492;12.134;2022-09-03T15:01:39;780.53;;;695.93;;
20159;SDS011;50187;50.492;12.134;2022-09-03T15:05:26;757.27;;;674.83;;
20159;SDS011;50187;50.492;12.134;2022-09-03T15:08:42;745.70;;;664.77;;
20159;SDS011;50187;50.492;12.134;2022-09-03T15:11:21;749.13;;;667.87;;
20159;SDS011;50187;50.492;12.134;2022-09-03T15:14:29;743.87;;;663.33;;
20159;SDS011;50187;50.492;12.134;2022-09-03T15:24:26;706.40;;;630.17;;
20159;SDS011;50187;50.492;12.134;2022-09-03T15:27:19;699.03;;;623.37;;
20159;SDS011;50187;50.492;12.134;2022-09-03T15:30:11;694.90;;;620.30;;
20159;SDS011;50187;50.492;12.134;2022-09-03T15:33:09;687.10;;;613.57;;
20159;SDS011;50187;50.492;12.134;2022-09-03T15:36:05;680.70;;;608.30;;
20159;SDS011;50187;50.492;12.134;2022-09-03T15:38:54;671.30;;;599.80;;
20159;SDS011;50187;50.492;12.134;2022-09-03T15:44:49;658.80;;;588.40;;
20159;SDS011;50187;50.492;12.134;2022-09-03T15:50:36;653.57;;;584.53;;
20159;SDS011;50187;50.492;12.134;2022-09-03T16:05:12;619.30;;;553.40;;
20159;SDS011;50187;50.492;12.134;2022-09-03T16:11:20;617.57;;;551.73;;
20159;SDS011;50187;50.492;12.134;2022-09-03T16:14:17;617.47;;;552.27;;
20159;SDS011;50187;50.492;12.134;2022-09-03T16:17:37;609.83;;;545.17;;
20159;SDS011;50187;50.492;12.134;2022-09-03T16:26:50;595.10;;;531.77;;
20159;SDS011;50187;50.492;12.134;2022-09-03T16:29:53;594.07;;;530.30;;
20159;SDS011;50187;50.492;12.134;2022-09-03T16:45:02;574.93;;;513.03;;
20159;SDS011;50187;50.492;12.134;2022-09-03T16:54:00;564.93;;;504.80;;
20159;SDS011;50187;50.492;12.134;2022-09-03T17:00:00;543.10;;;485.03;;
20159;SDS011;50187;50.492;12.134;2022-09-03T17:06:00;530.33;;;473.53;;
20159;SDS011;50187;50.492;12.134;2022-09-03T17:09:06;518.17;;;462.43;;
20159;SDS011;50187;50.492;12.134;2022-09-03T17:12:25;526.50;;;470.53;;
20159;SDS011;50187;50.492;12.134;2022-09-03T17:15:21;518.00;;;462.63;;
20159;SDS011;50187;50.492;12.134;2022-09-03T17:21:36;514.07;;;458.53;;
20159;SDS011;50187;50.492;12.134;2022-09-03T17:24:41;506.13;;;451.73;;
20159;SDS011;50187;50.492;12.134;2022-09-03T17:27:52;498.23;;;444.87;;
20159;SDS011;50187;50.492;12.134;2022-09-03T17:36:30;486.27;;;434.27;;
20159;SDS011;50187;50.492;12.134;2022-09-03T17:39:28;480.07;;;428.27;;
20159;SDS011;50187;50.492;12.134;2022-09-03T17:45:36;469.57;;;419.23;;
20159;SDS011;50187;50.492;12.134;2022-09-03T17:51:45;467.53;;;417.27;;
20159;SDS011;50187;50.492;12.134;2022-09-03T17:54:37;473.43;;;423.40;;
20159;SDS011;50187;50.492;12.134;2022-09-03T17:57:44;470.43;;;419.90;;
20159;SDS011;50187;50.492;12.134;2022-09-03T18:00:35;455.53;;;406.67;;
20159;SDS011;50187;50.492;12.134;2022-09-03T18:06:31;450.07;;;402.80;;
20159;SDS011;50187;50.492;12.134;2022-09-03T18:09:31;447.07;;;399.53;;
20159;SDS011;50187;50.492;12.134;2022-09-03T18:12:48;435.40;;;389.47;;
20159;SDS011;50187;50.492;12.134;2022-09-03T18:15:48;429.63;;;383.87;;
20159;SDS011;50187;50.492;12.134;2022-09-03T18:18:43;426.93;;;382.23;;
20159;SDS011;50187;50.492;12.134;2022-09-03T18:21:33;419.77;;;375.50;;
20159;SDS011;50187;50.492;12.134;2022-09-03T18:24:40;427.30;;;382.27;;
20159;SDS011;50187;50.492;12.134;2022-09-03T18:27:50;406.90;;;364.20;;
20159;SDS011;50187;50.492;12.134;2022-09-03T18:30:59;408.33;;;366.00;;
20159;SDS011;50187;50.492;12.134;2022-09-03T18:34:03;405.37;;;362.50;;
20159;SDS011;50187;50.492;12.134;2022-09-03T18:37:07;398.80;;;356.70;;
20159;SDS011;50187;50.492;12.134;2022-09-03T18:40:20;409.40;;;366.67;;
20159;SDS011;50187;50.492;12.134;2022-09-03T18:43:34;384.90;;;344.50;;
20159;SDS011;50187;50.492;12.134;2022-09-03T18:50:25;384.87;;;344.53;;
20159;SDS011;50187;50.492;12.134;2022-09-03T19:14:38;349.33;;;312.80;;
20159;SDS011;50187;50.492;12.134;2022-09-03T19:24:44;320.57;;;286.53;;
20159;SDS011;50187;50.492;12.134;2022-09-03T19:27:55;324.67;;;290.43;;
20159;SDS011;50187;50.492;12.134;2022-09-03T19:34:57;312.23;;;279.00;;
20159;SDS011;50187;50.492;12.134;2022-09-03T19:41:31;313.40;;;280.57;;
20159;SDS011;50187;50.492;12.134;2022-09-03T19:51:21;303.67;;;271.83;;
20159;SDS011;50187;50.492;12.134;2022-09-03T19:54:32;295.03;;;263.57;;
20159;SDS011;50187;50.492;12.134;2022-09-03T19:57:38;286.27;;;256.23;;
20159;SDS011;50187;50.492;12.134;2022-09-03T20:00:44;290.27;;;259.73;;
20159;SDS011;50187;50.492;12.134;2022-09-03T20:03:49;292.73;;;262.03;;
20159;SDS011;50187;50.492;12.134;2022-09-03T20:06:54;284.63;;;254.17;;
20159;SDS011;50187;50.492;12.134;2022-09-03T20:09:59;278.13;;;248.73;;
20159;SDS011;50187;50.492;12.134;2022-09-03T20:13:07;285.00;;;254.53;;
20159;SDS011;50187;50.492;12.134;2022-09-03T20:19:02;257.60;;;230.07;;
20159;SDS011;50187;50.492;12.134;2022-09-03T20:34:23;248.87;;;221.93;;
20159;SDS011;50187;50.492;12.134;2022-09-03T20:37:25;232.40;;;207.17;;
20159;SDS011;50187;50.492;12.134;2022-09-03T20:40:36;229.07;;;203.83;;
20159;SDS011;50187;50.492;12.134;2022-09-03T20:46:33;235.60;;;210.43;;
20159;SDS011;50187;50.492;12.134;2022-09-03T20:52:49;235.70;;;210.03;;
20159;SDS011;50187;50.492;12.134;2022-09-03T20:55:48;221.93;;;197.70;;
20159;SDS011;50187;50.492;12.134;2022-09-03T20:58:40;213.77;;;187.93;;
20159;SDS011;50187;50.492;12.134;2022-09-03T21:01:37;218.03;;;194.00;;
20159;SDS011;50187;50.492;12.134;2022-09-03T21:11:04;206.27;;;183.77;;
20159;SDS011;50187;50.492;12.134;2022-09-03T21:17:34;205.30;;;180.53;;
20159;SDS011;50187;50.492;12.134;2022-09-03T21:23:26;195.27;;;173.83;;
20159;SDS011;50187;50.492;12.134;2022-09-03T21:26:24;197.17;;;175.47;;
20159;SDS011;50187;50.492;12.134;2022-09-03T21:32:17;189.97;;;167.40;;
20159;SDS011;50187;50.492;12.134;2022-09-03T21:35:50;188.40;;;163.20;;
20159;SDS011;50187;50.492;12.134;2022-09-03T21:38:24;174.63;;;154.07;;
20159;SDS011;50187;50.492;12.134;2022-09-03T21:47:26;169.33;;;148.90;;
20159;SDS011;50187;50.492;12.134;2022-09-03T21:50:22;166.90;;;147.83;;
20159;SDS011;50187;50.492;12.134;2022-09-03T21:53:21;166.70;;;147.93;;
20159;SDS011;50187;50.492;12.134;2022-09-03T21:59:22;163.10;;;144.77;;
20159;SDS011;50187;50.492;12.134;2022-09-03T22:02:23;157.90;;;140.77;;
20159;SDS011;50187;50.492;12.134;2022-09-03T22:05:09;154.53;;;136.23;;
20159;SDS011;50187;50.492;12.134;2022-09-03T22:08:04;159.27;;;141.83;;
20159;SDS011;50187;50.492;12.134;2022-09-03T22:16:37;157.20;;;139.60;;
20159;SDS011;50187;50.492;12.134;2022-09-03T22:19:25;154.63;;;135.60;;
20159;SDS011;50187;50.492;12.134;2022-09-03T22:22:15;150.17;;;133.67;;
20159;SDS011;50187;50.492;12.134;2022-09-03T22:25:07;152.53;;;134.73;;
20159;SDS011;50187;50.492;12.134;2022-09-03T22:37:49;139.57;;;124.20;;
20159;SDS011;50187;50.492;12.134;2022-09-03T22:41:46;142.47;;;125.90;;
20159;SDS011;50187;50.492;12.134;2022-09-03T22:47:36;139.20;;;123.47;;
20159;SDS011;50187;50.492;12.134;2022-09-03T22:57:09;124.87;;;109.90;;
20159;SDS011;50187;50.492;12.134;2022-09-03T23:00:02;125.87;;;111.03;;
20159;SDS011;50187;50.492;12.134;2022-09-03T23:02:53;129.70;;;114.93;;
20159;SDS011;50187;50.492;12.134;2022-09-03T23:08:51;121.97;;;108.33;;
20159;SDS011;50187;50.492;12.134;2022-09-03T23:11:46;119.57;;;106.53;;
20159;SDS011;50187;50.492;12.134;2022-09-03T23:14:35;118.20;;;105.37;;
20159;SDS011;50187;50.492;12.134;2022-09-03T23:17:32;119.63;;;106.43;;
20159;SDS011;50187;50.492;12.134;2022-09-03T23:20:24;115.57;;;103.00;;
20159;SDS011;50187;50.492;12.134;2022-09-03T23:23:14;119.80;;;106.80;;